Time,TemperatureF,DewpointF,PressureIn,WindDirection,WindDirectionDegrees,WindSpeedMPH,WindSpeedGustMPH,Humidity,HourlyPrecipIn,Conditions,Clouds,dailyrainin,SoftwareType,DateUTC
2013-09-18 00:19:00,60.4,52.0,30.10,ESE,114,2.0,7.0,75,0.00,,,0.00,weatherlink.com 1.10,2013-09-18 05:19:00,
2013-09-18 00:34:00,60.7,52.0,30.10,SE,146,4.0,6.0,74,0.00,,,0.00,weatherlink.com 1.10,2013-09-18 05:34:00,
2013-09-18 00:49:00,61.0,53.0,30.10,SE,140,0.0,3.0,74,0.00,,,0.00,weatherlink.com 1.10,2013-09-18 05:49:00,
2013-09-18 01:04:00,61.0,53.0,30.10,ESE,111,1.0,4.0,74,0.00,,,0.00,weatherlink.com 1.10,2013-09-18 06:04:00,
2013-09-18 01:19:00,61.0,53.0,30.11,South,174,2.0,5.0,74,0.00,,,0.00,weatherlink.com 1.10,2013-09-18 06:19:00,
2013-09-18 01:34:00,60.6,53.0,30.10,SE,146,2.0,5.0,77,0.00,,,0.00,weatherlink.com 1.10,2013-09-18 06:34:00,
2013-09-18 01:49:00,60.0,53.0,30.10,SE,141,1.0,3.0,79,0.00,,,0.00,weatherlink.com 1.10,2013-09-18 06:49:00,
2013-09-18 02:04:00,59.5,54.0,30.10,SE,141,0.0,1.0,81,0.00,,,0.00,weatherlink.com 1.10,2013-09-18 07:04:00,
2013-09-18 02:19:00,59.1,54.0,30.10,SE,141,0.0,1.0,83,0.00,,,0.00,weatherlink.com 1.10,2013-09-18 07:19:00,
2013-09-18 02:34:00,58.8,54.0,30.09,SE,141,0.0,0.0,84,0.00,,,0.00,weatherlink.com 1.10,2013-09-18 07:34:00,
2013-09-18 02:49:00,58.7,54.0,30.09,SE,141,0.0,1.0,84,0.00,,,0.00,weatherlink.com 1.10,2013-09-18 07:49:00,
2013-09-18 03:04:00,58.5,54.0,30.09,SE,141,0.0,1.0,85,0.00,,,0.00,weatherlink.com 1.10,2013-09-18 08:04:00,
2013-09-18 03:19:00,58.2,54.0,30.09,SE,141,0.0,1.0,85,0.00,,,0.00,weatherlink.com 1.10,2013-09-18 08:19:00,
2013-09-18 03:34:00,57.9,54.0,30.08,SE,141,0.0,0.0,86,0.00,,,0.00,weatherlink.com 1.10,2013-09-18 08:34:00,
2013-09-18 03:49:00,57.5,54.0,30.08,SE,141,0.0,2.0,87,0.00,,,0.00,weatherlink.com 1.10,2013-09-18 08:49:00,
2013-09-18 04:04:00,57.3,54.0,30.09,SE,141,0.0,1.0,87,0.00,,,0.00,weatherlink.com 1.10,2013-09-18 09:04:00,
2013-09-18 04:19:00,57.4,54.0,30.08,SE,141,1.0,1.0,88,0.00,,,0.00,weatherlink.com 1.10,2013-09-18 09:19:00,
2013-09-18 04:34:00,57.5,54.0,30.08,SE,141,1.0,2.0,88,0.00,,,0.00,weatherlink.com 1.10,2013-09-18 09:34:00,
2013-09-18 04:49:00,57.6,54.0,30.08,SE,141,0.0,1.0,88,0.00,,,0.00,weatherlink.com 1.10,2013-09-18 09:49:00,
2013-09-18 05:04:00,57.7,54.0,30.08,SE,141,0.0,1.0,88,0.00,,,0.00,weatherlink.com 1.10,2013-09-18 10:04:00,
2013-09-18 05:19:00,58.0,55.0,30.08,SE,141,0.0,1.0,89,0.00,,,0.00,weatherlink.com 1.10,2013-09-18 10:19:00,
2013-09-18 05:34:00,58.3,55.0,30.08,SE,141,0.0,1.0,89,0.00,,,0.00,weatherlink.com 1.10,2013-09-18 10:34:00,
2013-09-18 05:49:00,58.6,55.0,30.08,SE,141,0.0,0.0,89,0.00,,,0.00,weatherlink.com 1.10,2013-09-18 10:49:00,
2013-09-18 06:04:00,58.9,56.0,30.09,SE,141,0.0,0.0,89,0.00,,,0.00,weatherlink.com 1.10,2013-09-18 11:04:00,
2013-09-18 06:19:00,59.1,56.0,30.09,SE,141,0.0,0.0,89,0.00,,,0.00,weatherlink.com 1.10,2013-09-18 11:19:00,
2013-09-18 06:34:00,59.3,56.0,30.09,SE,141,0.0,0.0,89,0.00,,,0.00,weatherlink.com 1.10,2013-09-18 11:34:00,
2013-09-18 06:49:00,59.7,56.0,30.09,SE,141,0.0,0.0,88,0.00,,,0.00,weatherlink.com 1.10,2013-09-18 11:49:00,
2013-09-18 07:04:00,60.1,57.0,30.09,SE,141,0.0,1.0,88,0.00,,,0.00,weatherlink.com 1.10,2013-09-18 12:04:00,
2013-09-18 07:19:00,60.4,57.0,30.09,SE,141,0.0,0.0,87,0.00,,,0.00,weatherlink.com 1.10,2013-09-18 12:19:00,
2013-09-18 07:34:00,60.8,57.0,30.09,SE,141,0.0,0.0,87,0.00,,,0.00,weatherlink.com 1.10,2013-09-18 12:34:00,
2013-09-18 07:49:00,61.3,57.0,30.10,SE,141,0.0,2.0,85,0.00,,,0.00,weatherlink.com 1.10,2013-09-18 12:49:00,
2013-09-18 08:04:00,62.0,57.0,30.09,SE,141,0.0,3.0,84,0.00,,,0.00,weatherlink.com 1.10,2013-09-18 13:04:00,
2013-09-18 08:19:00,62.7,57.0,30.09,SSE,165,2.0,5.0,82,0.00,,,0.00,weatherlink.com 1.10,2013-09-18 13:19:00,
2013-09-18 08:34:00,63.5,57.0,30.09,SSE,163,1.0,4.0,80,0.00,,,0.00,weatherlink.com 1.10,2013-09-18 13:34:00,
2013-09-18 08:49:00,64.3,57.0,30.09,SSE,165,2.0,6.0,78,0.00,,,0.00,weatherlink.com 1.10,2013-09-18 13:49:00,
2013-09-18 09:04:00,65.3,57.0,30.09,SSE,165,4.0,6.0,75,0.00,,,0.00,weatherlink.com 1.10,2013-09-18 14:04:00,
2013-09-18 09:20:00,66.5,58.0,30.09,South,183,2.0,4.0,75,0.00,,,0.00,weatherlink.com 1.10,2013-09-18 14:20:00,
2013-09-18 09:35:00,67.5,58.0,30.08,SSE,160,4.0,7.0,71,0.00,,,0.00,weatherlink.com 1.10,2013-09-18 14:35:00,
2013-09-18 09:50:00,69.1,59.0,30.07,South,169,7.0,8.0,71,0.00,,,0.00,weatherlink.com 1.10,2013-09-18 14:50:00,
2013-09-18 10:05:00,70.4,59.0,30.07,South,180,2.0,7.0,68,0.00,,,0.00,weatherlink.com 1.10,2013-09-18 15:05:00,
2013-09-18 10:20:00,72.4,60.0,30.07,SSW,202,2.0,9.0,65,0.00,,,0.00,weatherlink.com 1.10,2013-09-18 15:20:00,
2013-09-18 10:35:00,74.8,61.0,30.07,SSW,212,4.0,9.0,62,0.00,,,0.00,weatherlink.com 1.10,2013-09-18 15:35:00,
2013-09-18 10:50:00,76.7,61.0,30.06,SW,227,3.0,12.0,58,0.00,,,0.00,weatherlink.com 1.10,2013-09-18 15:50:00,
2013-09-18 11:05:00,77.8,62.0,30.06,SW,222,6.0,14.0,58,0.00,,,0.00,weatherlink.com 1.10,2013-09-18 16:05:00,
2013-09-18 11:20:00,77.9,61.0,30.05,SW,229,5.0,16.0,57,0.00,,,0.00,weatherlink.com 1.10,2013-09-18 16:20:00,
2013-09-18 11:35:00,77.0,60.0,30.05,SSW,204,3.0,14.0,57,0.00,,,0.00,weatherlink.com 1.10,2013-09-18 16:35:00,
2013-09-18 11:50:00,78.2,61.0,30.05,SSW,207,5.0,12.0,56,0.00,,,0.00,weatherlink.com 1.10,2013-09-18 16:50:00,
2013-09-18 12:05:00,77.8,61.0,30.05,SSE,168,6.0,10.0,56,0.00,,,0.00,weatherlink.com 1.10,2013-09-18 17:05:00,
2013-09-18 12:20:00,77.7,62.0,30.04,SW,214,5.0,10.0,58,0.00,,,0.00,weatherlink.com 1.10,2013-09-18 17:20:00,
2013-09-18 12:35:00,78.9,62.0,30.04,SSE,148,5.0,11.0,57,0.00,,,0.00,weatherlink.com 1.10,2013-09-18 17:35:00,
2013-09-18 12:50:00,80.4,64.0,30.03,SSW,207,6.0,9.0,57,0.00,,,0.00,weatherlink.com 1.10,2013-09-18 17:50:00,
2013-09-18 13:05:00,81.2,64.0,30.02,South,173,6.0,10.0,56,0.00,,,0.00,weatherlink.com 1.10,2013-09-18 18:05:00,
2013-09-18 13:20:00,81.1,64.0,30.02,SSW,207,2.0,10.0,56,0.00,,,0.00,weatherlink.com 1.10,2013-09-18 18:20:00,
2013-09-18 13:35:00,81.7,66.0,30.01,SSW,195,2.0,11.0,59,0.00,,,0.00,weatherlink.com 1.10,2013-09-18 18:35:00,
2013-09-18 13:51:00,81.9,65.0,30.00,SSW,205,7.0,10.0,57,0.00,,,0.00,weatherlink.com 1.10,2013-09-18 18:51:00,
2013-09-18 14:05:00,81.8,65.0,30.00,West,275,7.0,10.0,57,0.00,,,0.00,weatherlink.com 1.10,2013-09-18 19:05:00,
2013-09-18 14:20:00,82.3,65.0,29.98,South,177,7.0,12.0,56,0.00,,,0.00,weatherlink.com 1.10,2013-09-18 19:20:00,
2013-09-18 14:36:00,81.4,65.0,29.98,South,175,4.0,8.0,57,0.00,,,0.00,weatherlink.com 1.10,2013-09-18 19:36:00,
2013-09-18 14:51:00,81.0,65.0,29.97,SE,140,5.0,14.0,58,0.00,,,0.00,weatherlink.com 1.10,2013-09-18 19:51:00,
2013-09-18 15:21:00,81.4,64.0,29.96,SSW,202,0.0,10.0,56,0.00,,,0.00,weatherlink.com 1.10,2013-09-18 20:21:00,
2013-09-18 15:36:00,81.0,66.0,29.95,South,181,0.0,9.0,60,0.00,,,0.00,weatherlink.com 1.10,2013-09-18 20:36:00,
2013-09-18 15:51:00,82.0,66.0,29.96,SSW,213,2.0,7.0,58,0.00,,,0.00,weatherlink.com 1.10,2013-09-18 20:51:00,
2013-09-18 16:06:00,81.6,65.0,29.96,SSW,197,1.0,10.0,57,0.00,,,0.00,weatherlink.com 1.10,2013-09-18 21:06:00,
2013-09-18 16:21:00,81.9,65.0,29.95,SSW,206,3.0,8.0,57,0.00,,,0.00,weatherlink.com 1.10,2013-09-18 21:21:00,
2013-09-18 16:36:00,81.9,66.0,29.95,SW,221,5.0,8.0,59,0.00,,,0.00,weatherlink.com 1.10,2013-09-18 21:36:00,
2013-09-18 17:06:00,81.4,66.0,29.95,SSW,200,4.0,7.0,60,0.00,,,0.00,weatherlink.com 1.10,2013-09-18 22:06:00,
2013-09-18 17:21:00,80.7,65.0,29.95,SSW,195,1.0,6.0,60,0.00,,,0.00,weatherlink.com 1.10,2013-09-18 22:21:00,
2013-09-18 17:36:00,80.2,66.0,29.95,SSW,198,0.0,5.0,62,0.00,,,0.00,weatherlink.com 1.10,2013-09-18 22:36:00,
2013-09-18 17:51:00,79.7,66.0,29.95,South,175,0.0,3.0,64,0.00,,,0.00,weatherlink.com 1.10,2013-09-18 22:51:00,
2013-09-18 18:06:00,78.5,67.0,29.95,South,175,0.0,1.0,68,0.00,,,0.00,weatherlink.com 1.10,2013-09-18 23:06:00,
2013-09-18 18:21:00,76.6,64.0,29.96,NW,315,3.0,19.0,66,0.00,,,0.00,weatherlink.com 1.10,2013-09-18 23:21:00,
2013-09-18 18:36:00,71.1,67.0,29.95,NNE,29,2.0,11.0,86,0.00,,,0.00,weatherlink.com 1.10,2013-09-18 23:36:00,
2013-09-18 18:51:00,70.7,67.0,29.93,NE,42,3.0,8.0,88,0.00,,,0.00,weatherlink.com 1.10,2013-09-18 23:51:00,
2013-09-18 19:06:00,70.0,67.0,29.93,East,88,0.0,4.0,89,0.38,,,0.38,weatherlink.com 1.10,2013-09-19 00:06:00,
2013-09-18 19:21:00,69.5,67.0,29.93,East,87,0.0,2.0,90,0.38,,,0.38,weatherlink.com 1.10,2013-09-19 00:21:00,
2013-09-18 19:36:00,69.5,67.0,29.93,South,176,3.0,5.0,91,0.38,,,0.38,weatherlink.com 1.10,2013-09-19 00:36:00,
2013-09-18 19:51:00,69.7,67.0,29.94,South,175,0.0,3.0,91,0.38,,,0.38,weatherlink.com 1.10,2013-09-19 00:51:00,
2013-09-18 20:06:00,69.4,67.0,29.94,South,175,0.0,3.0,91,0.00,,,0.38,weatherlink.com 1.10,2013-09-19 01:06:00,
2013-09-18 20:21:00,69.5,67.0,29.94,SSW,196,4.0,6.0,91,0.00,,,0.38,weatherlink.com 1.10,2013-09-19 01:21:00,
2013-09-18 20:36:00,70.6,67.0,29.95,SSW,203,3.0,7.0,88,0.00,,,0.38,weatherlink.com 1.10,2013-09-19 01:36:00,
2013-09-18 20:51:00,71.6,67.0,29.94,SSW,207,2.0,10.0,85,0.00,,,0.38,weatherlink.com 1.10,2013-09-19 01:51:00,
2013-09-18 21:06:00,72.1,67.0,29.95,SSW,205,3.0,10.0,84,0.00,,,0.38,weatherlink.com 1.10,2013-09-19 02:06:00,
2013-09-18 21:21:00,72.2,67.0,29.95,SSW,192,0.0,9.0,83,0.00,,,0.38,weatherlink.com 1.10,2013-09-19 02:21:00,
2013-09-18 21:36:00,71.6,67.0,29.95,SSW,194,2.0,5.0,84,0.00,,,0.38,weatherlink.com 1.10,2013-09-19 02:36:00,
2013-09-18 21:51:00,71.4,67.0,29.95,SW,219,1.0,5.0,85,0.00,,,0.38,weatherlink.com 1.10,2013-09-19 02:51:00,
2013-09-18 22:21:00,70.5,66.0,29.99,East,83,4.0,10.0,86,0.00,,,0.38,weatherlink.com 1.10,2013-09-19 03:21:00,
2013-09-18 22:36:00,70.0,65.0,29.97,SE,141,7.0,8.0,84,0.00,,,0.38,weatherlink.com 1.10,2013-09-19 03:36:00,
2013-09-18 22:51:00,71.3,67.0,29.99,South,171,2.0,7.0,85,0.00,,,0.38,weatherlink.com 1.10,2013-09-19 03:51:00,
2013-09-18 23:06:00,70.3,65.0,30.00,East,96,7.0,10.0,82,0.00,,,0.38,weatherlink.com 1.10,2013-09-19 04:06:00,
2013-09-18 23:21:00,69.0,64.0,30.00,East,94,10.0,11.0,83,0.00,,,0.38,weatherlink.com 1.10,2013-09-19 04:21:00,
2013-09-18 23:36:00,67.6,63.0,29.99,East,90,0.0,5.0,86,0.00,,,0.38,weatherlink.com 1.10,2013-09-19 04:36:00,
2013-09-18 23:51:00,66.8,63.0,29.98,East,85,2.0,7.0,88,0.00,,,0.38,weatherlink.com 1.10,2013-09-19 04:51:00,